createdAt,value
2022-08-28T00:00:38.490Z,2.20
2022-08-28T00:05:41.750Z,2.45
2022-08-28T00:10:44.266Z,2.67
2022-08-28T00:15:49.926Z,1.88
2022-08-28T00:20:52.085Z,1.83
2022-08-28T00:25:54.176Z,3.55
2022-08-28T00:31:00.027Z,2.42
2022-08-28T00:36:02.765Z,1.83
2022-08-28T00:41:04.879Z,2.05
2022-08-28T00:46:16.803Z,2.47
2022-08-28T00:51:20.108Z,2.55
2022-08-28T00:56:22.362Z,2.05
2022-08-28T01:01:25.034Z,1.63
2022-08-28T01:06:26.810Z,2.05
2022-08-28T01:11:29.647Z,1.77
2022-08-28T01:16:33.972Z,1.77
2022-08-28T01:21:47.074Z,2.65
2022-08-28T01:26:48.764Z,1.83
2022-08-28T01:31:50.502Z,2.05
2022-08-28T01:36:52.108Z,1.85
2022-08-28T01:41:55.845Z,2.03
2022-08-28T01:46:58.512Z,2.35
2022-08-28T01:52:00.495Z,1.80
2022-08-28T01:57:06.594Z,1.85
2022-08-28T02:02:09.327Z,2.22
2022-08-28T02:07:11.733Z,1.77
2022-08-28T02:12:14.058Z,1.60
2022-08-28T02:17:16.188Z,2.45
2022-08-28T02:22:18.276Z,2.15
2022-08-28T02:27:20.084Z,1.33
2022-08-28T02:32:21.885Z,1.40
2022-08-28T02:37:23.829Z,2.00
2022-08-28T02:42:25.532Z,2.03
2022-08-28T02:47:27.153Z,1.40
2022-08-28T02:52:29.224Z,1.60
2022-08-28T02:57:31.353Z,1.30
2022-08-28T03:02:33.090Z,1.60
2022-08-28T03:07:35.268Z,2.05
2022-08-28T03:12:37.291Z,1.25
2022-08-28T03:17:39.842Z,1.15
2022-08-28T03:22:43.658Z,1.08
2022-08-28T03:27:45.374Z,1.77
2022-08-28T03:32:49.178Z,1.80
2022-08-28T03:37:51.671Z,1.45
2022-08-28T03:42:53.805Z,1.58
2022-08-28T03:47:55.615Z,1.40
2022-08-28T03:52:57.874Z,1.30
2022-08-28T03:57:59.559Z,1.50
2022-08-28T04:03:01.273Z,1.60
2022-08-28T04:08:03.238Z,1.50
2022-08-28T04:13:04.849Z,1.90
2022-08-28T04:18:06.787Z,2.40
2022-08-28T04:23:08.453Z,2.15
2022-08-28T04:28:10.428Z,1.88
2022-08-28T04:33:12.137Z,2.00
2022-08-28T04:38:14.017Z,1.70
2022-08-28T04:43:16.148Z,2.20
2022-08-28T04:48:18.777Z,1.80
2022-08-28T04:53:21.472Z,2.20
2022-08-28T04:58:24.014Z,2.20
2022-08-28T05:03:26.983Z,2.42
2022-08-28T05:08:28.809Z,2.28
2022-08-28T05:13:30.588Z,2.63
2022-08-28T05:18:33.061Z,2.38
2022-08-28T05:23:35.024Z,2.80
2022-08-28T05:28:37.016Z,3.45
2022-08-28T05:33:39.004Z,2.10
2022-08-28T05:38:41.553Z,3.00
2022-08-28T05:43:43.255Z,3.22
2022-08-28T05:48:45.135Z,3.00
2022-08-28T05:53:47.816Z,2.95
2022-08-28T05:58:49.799Z,2.92
2022-08-28T06:03:57.691Z,2.85
2022-08-28T06:09:22.458Z,3.35
2022-08-28T06:14:27.909Z,3.63
2022-08-28T06:19:32.058Z,3.50
2022-08-28T06:24:34.794Z,3.42
2022-08-28T06:29:36.516Z,3.25
2022-08-28T06:34:38.216Z,3.63
2022-08-28T06:39:39.810Z,4.05
2022-08-28T06:44:41.610Z,3.25
2022-08-28T06:49:43.269Z,3.30
2022-08-28T06:54:45.596Z,3.28
2022-08-28T06:59:58.752Z,3.22
2022-08-28T07:05:00.552Z,3.08
2022-08-28T07:10:02.459Z,3.30
2022-08-28T07:15:04.758Z,4.00
2022-08-28T07:20:06.993Z,3.22
2022-08-28T07:25:09.491Z,3.03
2022-08-28T07:30:11.279Z,3.20
2022-08-28T07:35:13.059Z,3.78
2022-08-28T07:40:15.282Z,3.50
2022-08-28T07:45:17.254Z,3.08
2022-08-28T07:50:19.045Z,2.70
2022-08-28T07:55:20.835Z,3.42
2022-08-28T08:00:22.704Z,2.50
2022-08-28T08:05:24.364Z,2.70
2022-08-28T08:10:26.026Z,2.65
2022-08-28T08:15:35.790Z,2.53
2022-08-28T08:20:38.773Z,2.33
2022-08-28T08:25:40.480Z,2.78
2022-08-28T08:30:42.213Z,2.55
2022-08-28T08:35:43.934Z,2.53
2022-08-28T08:40:45.794Z,2.58
2022-08-28T08:45:49.294Z,2.70
2022-08-28T08:50:51.344Z,2.50
2022-08-28T08:55:56.756Z,2.95
2022-08-28T09:01:20.836Z,2.67
2022-08-28T09:07:05.921Z,2.35
2022-08-28T09:12:20.246Z,2.37
2022-08-28T09:17:27.795Z,2.90
2022-08-28T09:22:29.415Z,2.55
2022-08-28T09:27:33.441Z,2.47
2022-08-28T09:32:43.920Z,2.22
2022-08-28T09:37:45.662Z,2.10
2022-08-28T09:43:02.398Z,2.35
2022-08-28T09:48:19.780Z,1.88
2022-08-28T09:53:22.222Z,2.10
2022-08-28T09:58:32.830Z,2.15
2022-08-28T10:03:44.271Z,2.17
2022-08-28T10:09:10.860Z,1.98
2022-08-28T10:14:21.319Z,2.45
2022-08-28T10:19:40.039Z,2.40
2022-08-28T10:24:49.636Z,2.20
2022-08-28T10:30:13.362Z,2.40
2022-08-28T10:35:24.282Z,2.55
2022-08-28T10:40:47.854Z,2.65
2022-08-28T10:45:50.390Z,2.45
2022-08-28T10:51:04.170Z,2.60
2022-08-28T10:56:16.256Z,2.30
2022-08-28T11:01:27.234Z,1.77
2022-08-28T11:06:52.045Z,1.98
2022-08-28T11:12:19.613Z,2.00
2022-08-28T11:17:24.082Z,2.05
2022-08-28T11:22:46.344Z,2.75
2022-08-28T11:28:18.148Z,1.98
2022-08-28T11:33:46.149Z,2.20
2022-08-28T11:38:56.554Z,2.35
2022-08-28T11:44:05.148Z,1.90
2022-08-28T11:49:43.950Z,2.30
2022-08-28T11:54:57.679Z,2.47
2022-08-28T12:00:19.380Z,2.17
2022-08-28T12:05:33.262Z,2.30
2022-08-28T12:10:34.882Z,2.00
2022-08-28T12:15:40.597Z,2.13
2022-08-28T12:20:51.284Z,2.10
2022-08-28T12:26:07.368Z,2.28
2022-08-28T12:31:09.011Z,2.22
2022-08-28T12:36:16.734Z,1.77
2022-08-28T12:41:20.924Z,2.53
2022-08-28T12:46:30.015Z,1.83
2022-08-28T12:51:35.273Z,1.95
2022-08-28T12:56:38.527Z,2.42
2022-08-28T13:01:40.283Z,1.70
2022-08-28T13:06:42.141Z,2.28
2022-08-28T13:11:49.843Z,2.22
2022-08-28T13:16:51.548Z,2.30
2022-08-28T13:22:00.078Z,2.00
2022-08-28T13:27:07.616Z,1.42
2022-08-28T13:32:16.168Z,1.98
2022-08-28T13:37:42.385Z,1.63
2022-08-28T13:42:46.854Z,1.67
2022-08-28T13:52:49.984Z,1.60
2022-08-28T13:57:52.327Z,1.73
2022-08-28T14:02:53.959Z,1.50
2022-08-28T14:07:55.567Z,1.10
2022-08-28T14:12:57.213Z,1.67
2022-08-28T14:17:58.976Z,1.85
2022-08-28T14:23:00.653Z,1.50
2022-08-28T14:28:02.537Z,1.83
2022-08-28T14:33:04.227Z,1.80
2022-08-28T14:38:05.923Z,1.95
2022-08-28T14:43:09.125Z,2.08
2022-08-28T14:48:10.865Z,1.75
2022-08-28T14:53:13.671Z,2.00
2022-08-28T14:58:17.890Z,1.90
2022-08-28T15:03:21.331Z,1.50
2022-08-28T15:08:22.958Z,2.08
2022-08-28T15:13:24.848Z,1.50
2022-08-28T15:18:33.504Z,1.45
2022-08-28T15:23:35.145Z,1.90
2022-08-28T15:28:39.328Z,1.93
2022-08-28T15:33:45.194Z,1.25
2022-08-28T15:38:47.027Z,1.52
2022-08-28T15:43:48.678Z,1.30
2022-08-28T15:48:50.427Z,1.45
2022-08-28T15:53:56.158Z,1.25
2022-08-28T15:58:57.823Z,1.40
2022-08-28T16:03:59.419Z,1.10
2022-08-28T16:09:01.724Z,2.33
2022-08-28T16:14:03.490Z,1.40
2022-08-28T16:19:05.327Z,1.63
2022-08-28T16:24:07.031Z,1.40
2022-08-28T16:29:08.659Z,1.67
2022-08-28T16:34:10.620Z,1.23
2022-08-28T16:39:12.274Z,1.70
2022-08-28T16:44:13.865Z,1.83
2022-08-28T16:49:15.498Z,1.10
2022-08-28T16:54:17.209Z,1.70
2022-08-28T16:59:18.864Z,1.20
2022-08-28T17:04:20.699Z,1.25
2022-08-28T17:09:22.328Z,2.83
2022-08-28T17:14:24.524Z,2.10
2022-08-28T17:19:26.538Z,1.67
2022-08-28T17:24:28.793Z,2.28
2022-08-28T17:29:30.354Z,2.33
2022-08-28T17:34:32.773Z,1.55
2022-08-28T17:39:34.465Z,1.70
2022-08-28T17:44:36.073Z,1.60
2022-08-28T17:49:38.629Z,1.15
2022-08-28T17:54:40.241Z,1.30
2022-08-28T17:59:42.204Z,2.08
2022-08-28T18:04:44.161Z,2.17
2022-08-28T18:09:46.935Z,1.55
2022-08-28T18:14:48.581Z,1.85
2022-08-28T18:19:50.247Z,1.20
2022-08-28T18:24:52.783Z,1.38
2022-08-28T18:29:54.484Z,1.23
2022-08-28T18:34:56.148Z,1.10
2022-08-28T18:39:57.841Z,1.45
2022-08-28T18:44:59.592Z,1.75
2022-08-28T18:50:01.306Z,1.73
2022-08-28T18:55:08.263Z,1.27
2022-08-28T19:00:10.711Z,1.77
2022-08-28T19:05:12.716Z,1.20
2022-08-28T19:10:32.880Z,1.13
2022-08-28T19:15:36.602Z,1.70
2022-08-28T19:20:38.252Z,0.85
2022-08-28T19:25:41.095Z,1.40
2022-08-28T19:30:42.787Z,1.50
2022-08-28T19:35:44.492Z,1.35
2022-08-28T19:40:46.172Z,1.50
2022-08-28T19:45:47.856Z,1.05
2022-08-28T19:50:59.437Z,1.92
2022-08-28T19:56:01.110Z,1.40
2022-08-28T20:01:03.987Z,1.10
2022-08-28T20:06:05.973Z,1.30
2022-08-28T20:11:07.687Z,1.40
2022-08-28T20:16:09.470Z,1.27
2022-08-28T20:21:11.987Z,1.60
2022-08-28T20:26:14.073Z,1.75
2022-08-28T20:31:17.563Z,1.65
2022-08-28T20:36:21.471Z,1.00
2022-08-28T20:41:24.277Z,1.67
2022-08-28T20:46:25.893Z,1.50
2022-08-28T20:51:28.013Z,1.35
2022-08-28T20:56:29.739Z,1.27
2022-08-28T21:01:31.626Z,1.58
2022-08-28T21:06:33.591Z,1.20
2022-08-28T21:11:35.169Z,1.40
2022-08-28T21:16:38.480Z,1.55
2022-08-28T21:21:41.282Z,1.27
2022-08-28T21:26:48.652Z,1.20
2022-08-28T21:31:51.927Z,1.35
2022-08-28T21:36:53.555Z,1.90
2022-08-28T21:41:55.369Z,1.60
2022-08-28T21:46:56.975Z,1.30
2022-08-28T21:51:58.612Z,1.65
2022-08-28T21:57:00.228Z,1.77
2022-08-28T22:02:01.853Z,1.65
2022-08-28T22:07:03.500Z,1.88
2022-08-28T22:12:05.784Z,1.27
2022-08-28T22:17:11.796Z,1.70
2022-08-28T22:22:14.653Z,1.25
2022-08-28T22:27:16.286Z,1.60
2022-08-28T22:32:18.055Z,1.73
2022-08-28T22:37:19.690Z,1.35
2022-08-28T22:42:21.290Z,1.75
2022-08-28T22:47:22.907Z,1.58
2022-08-28T22:52:24.512Z,2.08
2022-08-28T22:57:26.107Z,1.70
2022-08-28T23:02:27.752Z,1.58
2022-08-28T23:07:29.479Z,1.48
2022-08-28T23:12:31.554Z,1.45
2022-08-28T23:17:33.347Z,1.48
2022-08-28T23:22:35.544Z,1.60
2022-08-28T23:27:37.133Z,1.48
2022-08-28T23:32:38.824Z,1.60
2022-08-28T23:37:42.939Z,1.95
2022-08-28T23:42:48.854Z,1.55
2022-08-28T23:47:51.317Z,1.30
2022-08-28T23:52:52.948Z,1.63
2022-08-28T23:57:54.626Z,2.08
